createdAt,value
2022-12-29T00:00:37.997Z,99298.94
2022-12-29T00:04:39.772Z,99290.28
2022-12-29T00:08:41.845Z,99286.50
2022-12-29T00:13:02.080Z,99286.50
2022-12-29T00:17:04.030Z,99282.72
2022-12-29T00:21:24.607Z,99287.69
2022-12-29T00:25:44.842Z,99281.31
2022-12-29T00:30:05.217Z,99260.75
2022-12-29T00:34:30.144Z,99257.16
2022-12-29T00:38:52.728Z,99257.97
2022-12-29T00:43:12.949Z,99254.56
2022-12-29T00:47:15.938Z,99249.97
2022-12-29T00:51:20.125Z,99253.25
2022-12-29T00:55:22.187Z,99246.91
2022-12-29T00:59:25.185Z,99244.44
2022-12-29T01:03:27.042Z,99229.91
2022-12-29T01:07:28.818Z,99246.56
2022-12-29T01:11:30.545Z,99238.09
2022-12-29T01:15:32.349Z,99237.59
2022-12-29T01:19:34.145Z,99241.84
2022-12-29T01:23:35.903Z,99240.81
2022-12-29T01:27:37.690Z,99252.56
2022-12-29T01:31:39.482Z,99247.34
2022-12-29T01:35:41.289Z,99233.66
2022-12-29T01:39:43.031Z,99234.28
2022-12-29T01:43:57.390Z,99246.72
2022-12-29T01:48:03.427Z,99239.50
2022-12-29T01:52:07.323Z,99239.53
2022-12-29T01:56:10.726Z,99234.28
2022-12-29T02:00:14.728Z,99229.06
2022-12-29T02:04:16.500Z,99204.41
2022-12-29T02:08:22.009Z,99207.69
2022-12-29T02:12:24.215Z,99201.81
2022-12-29T02:17:00.671Z,99186.97
2022-12-29T02:21:46.464Z,99199.19
2022-12-29T02:26:19.230Z,99200.84
2022-12-29T02:30:49.852Z,99195.09
2022-12-29T02:35:15.191Z,99194.13
2022-12-29T02:39:38.112Z,99186.47
2022-12-29T02:44:05.359Z,99176.81
2022-12-29T02:48:33.205Z,99187.25
2022-12-29T02:53:06.375Z,99185.97
2022-12-29T02:57:23.301Z,99183.50
2022-12-29T03:02:09.155Z,99182.69
2022-12-29T03:06:27.101Z,99181.72
2022-12-29T03:11:09.059Z,99164.00
2022-12-29T03:15:32.933Z,99169.41
2022-12-29T03:19:48.047Z,99172.31
2022-12-29T03:23:57.051Z,99161.69
2022-12-29T03:28:03.193Z,99164.28
2022-12-29T03:32:05.154Z,99148.56
2022-12-29T03:36:11.219Z,99151.81
2022-12-29T03:40:12.959Z,99140.72
2022-12-29T03:44:14.872Z,99136.47
2022-12-29T03:48:16.620Z,99137.44
2022-12-29T03:52:18.991Z,99125.03
2022-12-29T03:56:20.718Z,99123.84
2022-12-29T04:00:22.441Z,99128.28
2022-12-29T04:04:24.173Z,99130.88
2022-12-29T04:08:26.076Z,99118.44
2022-12-29T04:12:27.862Z,99128.88
2022-12-29T04:16:29.554Z,99118.44
2022-12-29T04:20:49.699Z,99120.81
2022-12-29T04:24:51.368Z,99125.72
2022-12-29T04:28:53.184Z,99110.84
2022-12-29T04:32:54.973Z,99113.50
2022-12-29T04:36:56.741Z,99114.22
2022-12-29T04:41:01.593Z,99103.38
2022-12-29T04:45:03.521Z,99118.97
2022-12-29T04:49:09.463Z,99113.63
2022-12-29T04:53:11.524Z,99125.91
2022-12-29T04:57:13.263Z,99132.56
2022-12-29T05:01:15.142Z,99122.59
2022-12-29T05:05:17.198Z,99125.13
2022-12-29T05:09:18.998Z,99121.34
2022-12-29T05:13:20.731Z,99127.13
2022-12-29T05:17:22.508Z,99129.16
2022-12-29T05:21:24.372Z,99123.53
2022-12-29T05:25:26.180Z,99126.91
2022-12-29T05:29:28.068Z,99120.06
2022-12-29T05:33:29.799Z,99139.97
2022-12-29T05:37:31.533Z,99134.97
2022-12-29T05:41:33.314Z,99153.72
2022-12-29T05:45:36.894Z,99151.78
2022-12-29T05:49:38.635Z,99144.59
2022-12-29T05:53:40.367Z,99139.03
2022-12-29T05:57:42.198Z,99155.22
2022-12-29T06:01:44.002Z,99169.78
2022-12-29T06:05:47.133Z,99168.06
2022-12-29T06:09:48.887Z,99168.06
2022-12-29T06:13:50.616Z,99166.38
2022-12-29T06:17:52.407Z,99160.25
2022-12-29T06:21:54.712Z,99167.22
2022-12-29T06:25:56.481Z,99160.06
2022-12-29T06:29:58.371Z,99142.56
2022-12-29T06:34:05.080Z,99150.38
2022-12-29T06:38:11.679Z,99141.84
2022-12-29T06:42:16.182Z,99136.75
2022-12-29T06:46:21.148Z,99142.16
2022-12-29T06:50:23.045Z,99143.94
2022-12-29T06:54:25.016Z,99140.56
2022-12-29T06:58:27.102Z,99151.50
2022-12-29T07:02:29.010Z,99145.50
2022-12-29T07:06:30.860Z,99141.28
2022-12-29T07:10:32.857Z,99135.25
2022-12-29T07:14:40.753Z,99156.28
2022-12-29T07:18:44.544Z,99161.50
2022-12-29T07:22:48.059Z,99171.00
2022-12-29T07:26:49.808Z,99158.47
2022-12-29T07:30:51.569Z,99189.16
2022-12-29T07:34:53.374Z,99166.06
2022-12-29T07:38:55.140Z,99162.25
2022-12-29T07:42:56.873Z,99156.72
2022-12-29T07:46:59.280Z,99152.13
2022-12-29T07:51:01.172Z,99155.09
2022-12-29T07:55:02.901Z,99154.41
2022-12-29T07:59:05.025Z,99162.16
2022-12-29T08:03:06.751Z,99156.41
2022-12-29T08:07:08.486Z,99155.88
2022-12-29T08:11:10.250Z,99172.63
2022-12-29T08:15:12.982Z,99187.31
2022-12-29T08:19:15.149Z,99184.16
2022-12-29T08:23:16.949Z,99187.41
2022-12-29T08:27:21.041Z,99207.94
2022-12-29T08:31:24.164Z,99191.69
2022-12-29T08:35:25.960Z,99186.88
2022-12-29T08:39:28.189Z,99191.41
2022-12-29T08:43:30.015Z,99196.91
2022-12-29T08:47:31.784Z,99189.84
2022-12-29T08:51:33.586Z,99206.16
2022-12-29T08:55:35.383Z,99183.56
2022-12-29T08:59:37.143Z,99188.97
2022-12-29T09:04:12.820Z,99195.94
2022-12-29T09:08:00.809Z,99186.13
2022-12-29T09:12:02.547Z,99176.84
2022-12-29T09:16:04.707Z,99186.53
2022-12-29T09:20:07.067Z,99165.34
2022-12-29T09:24:08.936Z,99161.88
2022-12-29T09:28:11.111Z,99160.28
2022-12-29T09:32:18.317Z,99176.19
2022-12-29T09:36:20.732Z,99175.75
2022-12-29T09:40:36.518Z,99177.94
2022-12-29T09:45:18.592Z,99184.66
2022-12-29T09:49:50.999Z,99188.50
2022-12-29T09:54:04.260Z,99176.72
2022-12-29T09:58:13.486Z,99183.09
2022-12-29T10:02:33.822Z,99164.94
2022-12-29T10:07:28.562Z,99161.22
2022-12-29T10:11:53.556Z,99160.44
2022-12-29T10:16:18.578Z,99175.97
2022-12-29T10:20:50.811Z,99157.16
2022-12-29T10:24:53.209Z,99167.31
2022-12-29T10:29:04.671Z,99160.72
2022-12-29T10:33:08.824Z,99149.22
2022-12-29T10:37:42.623Z,99158.34
2022-12-29T10:42:00.372Z,99159.72
2022-12-29T10:46:25.228Z,99141.78
2022-12-29T10:50:30.945Z,99138.22
2022-12-29T10:54:50.926Z,99125.50
2022-12-29T10:58:52.770Z,99117.41
2022-12-29T11:03:32.325Z,99122.88
2022-12-29T11:07:34.556Z,99106.97
2022-12-29T11:11:37.642Z,99117.03
2022-12-29T11:15:42.014Z,99109.50
2022-12-29T11:19:44.379Z,99117.06
2022-12-29T11:23:48.651Z,99091.94
2022-12-29T11:28:05.228Z,99096.69
2022-12-29T11:32:26.126Z,99105.34
2022-12-29T11:36:30.752Z,99104.94
2022-12-29T11:40:32.943Z,99085.06
2022-12-29T11:44:39.003Z,99111.19
2022-12-29T11:48:41.415Z,99087.03
2022-12-29T11:52:43.367Z,99077.09
2022-12-29T11:56:45.311Z,99097.66
2022-12-29T12:00:47.329Z,99088.22
2022-12-29T12:04:57.581Z,99087.78
2022-12-29T12:09:07.005Z,99097.31
2022-12-29T12:13:42.511Z,99088.00
2022-12-29T12:18:25.300Z,99086.03
2022-12-29T12:22:39.545Z,99084.13
2022-12-29T12:26:49.650Z,99076.66
2022-12-29T12:30:58.905Z,99077.63
2022-12-29T12:35:16.831Z,99090.06
2022-12-29T12:39:28.077Z,99076.31
2022-12-29T12:43:52.432Z,99076.19
2022-12-29T12:48:35.397Z,99065.03
2022-12-29T12:53:32.266Z,99067.38
2022-12-29T12:58:13.233Z,99056.94
2022-12-29T13:02:36.209Z,99052.56
2022-12-29T13:07:22.475Z,99046.38
2022-12-29T13:11:36.035Z,99048.09
2022-12-29T13:16:13.781Z,99066.34
2022-12-29T13:20:24.974Z,99047.50
2022-12-29T13:24:54.135Z,99062.69
2022-12-29T13:29:18.695Z,99058.75
2022-12-29T13:33:42.874Z,99074.00
2022-12-29T13:38:22.399Z,99081.41
2022-12-29T13:42:24.444Z,99058.50
2022-12-29T13:46:34.506Z,99067.72
2022-12-29T13:50:38.856Z,99089.06
2022-12-29T13:54:57.075Z,99080.66
2022-12-29T13:59:21.232Z,99086.19
2022-12-29T14:03:53.401Z,99088.81
2022-12-29T14:08:04.313Z,99087.22
2022-12-29T14:12:40.965Z,99074.41
2022-12-29T14:16:43.933Z,99079.94
2022-12-29T14:21:09.764Z,99086.41
2022-12-29T14:25:57.388Z,99094.06
2022-12-29T14:29:59.123Z,99099.31
2022-12-29T14:34:06.992Z,99095.91
2022-12-29T14:38:17.154Z,99091.81
2022-12-29T14:42:23.537Z,99093.66
2022-12-29T14:46:25.631Z,99113.41
2022-12-29T14:50:43.756Z,99118.41
2022-12-29T14:54:51.494Z,99111.44
2022-12-29T14:59:03.797Z,99119.59
2022-12-29T15:03:23.611Z,99096.13
2022-12-29T15:07:25.429Z,99090.72
2022-12-29T15:11:41.785Z,99125.88
2022-12-29T15:15:43.712Z,99125.25
2022-12-29T15:19:45.501Z,99120.81
2022-12-29T15:23:47.256Z,99138.91
2022-12-29T15:27:54.274Z,99145.16
2022-12-29T15:32:01.154Z,99152.84
2022-12-29T15:36:04.595Z,99135.91
2022-12-29T15:40:28.658Z,99151.50
2022-12-29T15:44:41.703Z,99159.34
2022-12-29T15:48:43.733Z,99184.53
2022-12-29T15:52:45.480Z,99207.59
2022-12-29T15:56:47.369Z,99204.91
2022-12-29T16:00:51.901Z,99200.19
2022-12-29T16:05:16.698Z,99212.72
2022-12-29T16:09:20.030Z,99234.63
2022-12-29T16:13:40.390Z,99231.41
2022-12-29T16:17:51.772Z,99236.47
2022-12-29T16:21:53.548Z,99238.44
2022-12-29T16:25:56.088Z,99233.25
2022-12-29T16:29:58.039Z,99246.84
2022-12-29T16:33:59.940Z,99233.22
2022-12-29T16:38:23.089Z,99249.31
2022-12-29T16:42:39.824Z,99244.38
2022-12-29T16:47:05.362Z,99241.91
2022-12-29T16:51:18.522Z,99248.41
2022-12-29T16:55:20.583Z,99264.09
2022-12-29T16:59:30.134Z,99252.88
2022-12-29T17:03:58.414Z,99260.50
2022-12-29T17:08:02.015Z,99259.72
2022-12-29T17:12:10.896Z,99252.56
2022-12-29T17:16:13.651Z,99274.59
2022-12-29T17:20:23.026Z,99279.09
2022-12-29T17:24:25.278Z,99270.91
2022-12-29T17:28:29.667Z,99279.94
2022-12-29T17:32:31.820Z,99286.66
2022-12-29T17:36:33.599Z,99275.25
2022-12-29T17:40:35.718Z,99292.09
2022-12-29T17:44:37.423Z,99281.28
2022-12-29T17:48:39.246Z,99283.44
2022-12-29T17:52:41.483Z,99280.97
2022-12-29T17:56:43.462Z,99293.75
2022-12-29T18:00:46.032Z,99297.66
2022-12-29T18:04:47.802Z,99290.63
2022-12-29T18:08:49.605Z,99300.13
2022-12-29T18:12:53.154Z,99298.03
2022-12-29T18:16:55.949Z,99307.19
2022-12-29T18:20:59.768Z,99301.63
2022-12-29T18:25:02.922Z,99295.72
2022-12-29T18:29:04.676Z,99301.28
2022-12-29T18:33:19.346Z,99303.25
2022-12-29T18:37:23.257Z,99299.97
2022-12-29T18:41:29.680Z,99312.41
2022-12-29T18:45:33.057Z,99295.91
2022-12-29T18:49:34.761Z,99310.09
2022-12-29T18:53:37.980Z,99304.06
2022-12-29T18:57:39.901Z,99285.59
2022-12-29T19:01:41.731Z,99291.97
2022-12-29T19:05:45.202Z,99289.34
2022-12-29T19:09:47.046Z,99312.59
2022-12-29T19:13:48.866Z,99296.56
2022-12-29T19:18:16.192Z,99285.41
2022-12-29T19:22:12.840Z,99296.84
2022-12-29T19:26:38.697Z,99277.06
2022-12-29T19:30:40.429Z,99291.31
2022-12-29T19:34:42.319Z,99299.31
2022-12-29T19:38:45.154Z,99303.25
2022-12-29T19:42:47.023Z,99299.50
2022-12-29T19:46:48.844Z,99300.63
2022-12-29T19:50:51.008Z,99296.72
2022-12-29T19:54:53.625Z,99299.63
2022-12-29T19:58:57.480Z,99274.78
2022-12-29T20:02:59.393Z,99285.56
2022-12-29T20:07:01.209Z,99278.38
2022-12-29T20:11:09.276Z,99280.00
2022-12-29T20:15:11.432Z,99276.59
2022-12-29T20:19:13.252Z,99278.53
2022-12-29T20:23:14.999Z,99289.16
2022-12-29T20:27:16.861Z,99277.56
2022-12-29T20:31:19.896Z,99276.09
2022-12-29T20:35:21.706Z,99280.38
2022-12-29T20:39:23.442Z,99290.19
2022-12-29T20:43:25.178Z,99287.75
2022-12-29T20:47:27.371Z,99276.44
2022-12-29T20:51:55.280Z,99275.13
2022-12-29T20:55:54.973Z,99285.75
2022-12-29T20:59:56.791Z,99302.22
2022-12-29T21:03:58.545Z,99298.94
2022-12-29T21:08:00.394Z,99320.50
2022-12-29T21:12:02.532Z,99316.56
2022-12-29T21:16:07.303Z,99315.91
2022-12-29T21:20:10.009Z,99325.84
2022-12-29T21:24:13.620Z,99329.91
2022-12-29T21:28:15.450Z,99344.56
2022-12-29T21:32:17.189Z,99350.44
2022-12-29T21:36:18.949Z,99350.03
2022-12-29T21:40:22.644Z,99349.34
2022-12-29T21:44:42.928Z,99358.22
2022-12-29T21:48:44.788Z,99379.09
2022-12-29T21:52:46.611Z,99373.78
2022-12-29T21:56:49.538Z,99384.09
2022-12-29T22:01:13.161Z,99386.19
2022-12-29T22:05:36.351Z,99389.44
2022-12-29T22:09:56.394Z,99401.81
2022-12-29T22:13:58.255Z,99404.09
2022-12-29T22:18:00.941Z,99420.19
2022-12-29T22:22:02.791Z,99419.34
2022-12-29T22:26:05.944Z,99418.84
2022-12-29T22:30:08.353Z,99435.00
2022-12-29T22:34:14.273Z,99424.22
2022-12-29T22:38:16.003Z,99424.28
2022-12-29T22:42:18.004Z,99414.19
2022-12-29T22:46:20.003Z,99416.50
2022-12-29T22:50:21.897Z,99416.69
2022-12-29T22:54:23.691Z,99409.59
2022-12-29T22:58:25.433Z,99419.59
2022-12-29T23:02:27.626Z,99406.28
2022-12-29T23:06:29.876Z,99419.22
2022-12-29T23:10:34.290Z,99427.53
2022-12-29T23:14:36.009Z,99435.19
2022-12-29T23:18:37.928Z,99446.66
2022-12-29T23:22:39.653Z,99434.56
2022-12-29T23:26:43.777Z,99429.34
2022-12-29T23:30:45.486Z,99431.22
2022-12-29T23:34:47.263Z,99441.06
2022-12-29T23:38:48.976Z,99431.53
2022-12-29T23:42:50.760Z,99430.06
2022-12-29T23:46:52.883Z,99447.06
2022-12-29T23:50:55.628Z,99456.16
2022-12-29T23:54:57.502Z,99446.06
2022-12-29T23:58:59.283Z,99449.75
